createdAt,value
2024-02-27T00:01:36.078Z,29.03
2024-02-27T00:04:03.934Z,23.17
2024-02-27T00:06:31.858Z,45.97
2024-02-27T00:09:01.876Z,35.07
2024-02-27T00:11:30.225Z,19.43
2024-02-27T00:13:58.617Z,23.23
2024-02-27T00:16:26.468Z,25.23
2024-02-27T00:18:54.683Z,17.20
2024-02-27T00:21:22.482Z,33.77
2024-02-27T00:23:50.792Z,23.20
2024-02-27T00:26:19.840Z,30.47
2024-02-27T00:28:48.120Z,23.10
2024-02-27T00:31:16.346Z,27.60
2024-02-27T00:33:44.308Z,32.67
2024-02-27T00:36:12.058Z,32.87
2024-02-27T00:38:40.596Z,22.20
2024-02-27T00:41:08.811Z,25.17
2024-02-27T00:43:38.351Z,24.70
2024-02-27T00:46:08.911Z,22.73
2024-02-27T00:48:36.714Z,25.07
2024-02-27T00:51:04.968Z,31.83
2024-02-27T00:53:32.916Z,27.40
2024-02-27T00:56:00.659Z,23.10
2024-02-27T00:58:28.341Z,21.73
2024-02-27T01:00:57.979Z,24.77
2024-02-27T01:03:26.168Z,21.00
2024-02-27T01:05:54.078Z,27.27
2024-02-27T01:08:22.514Z,22.50
2024-02-27T01:10:50.260Z,34.33
2024-02-27T01:13:18.426Z,37.07
2024-02-27T01:15:46.596Z,24.13
2024-02-27T01:18:15.930Z,29.70
2024-02-27T01:20:43.928Z,20.70
2024-02-27T01:23:11.602Z,20.10
2024-02-27T01:25:39.461Z,26.23
2024-02-27T01:28:07.910Z,24.63
2024-02-27T01:30:36.390Z,23.97
2024-02-27T01:33:04.450Z,27.33
2024-02-27T01:35:33.826Z,25.23
2024-02-27T01:38:02.235Z,25.10
2024-02-27T01:40:30.114Z,26.30
2024-02-27T01:42:58.035Z,22.43
2024-02-27T01:45:26.928Z,23.77
2024-02-27T01:47:55.684Z,22.87
2024-02-27T01:50:24.561Z,21.17
2024-02-27T01:52:54.624Z,19.07
2024-02-27T01:55:22.759Z,39.67
2024-02-27T01:57:52.396Z,25.63
2024-02-27T02:00:22.139Z,18.37
2024-02-27T02:02:50.904Z,19.77
2024-02-27T02:05:18.768Z,18.73
2024-02-27T02:07:48.475Z,23.77
2024-02-27T02:10:17.718Z,21.50
2024-02-27T02:12:45.937Z,22.90
2024-02-27T02:15:14.027Z,17.00
2024-02-27T02:17:43.544Z,18.43
2024-02-27T02:20:11.430Z,15.70
2024-02-27T02:22:42.424Z,24.20
2024-02-27T02:25:12.687Z,16.43
2024-02-27T02:27:41.075Z,16.53
2024-02-27T02:30:12.353Z,15.43
2024-02-27T02:32:47.371Z,15.47
2024-02-27T02:35:15.426Z,13.90
2024-02-27T02:37:48.765Z,20.37
2024-02-27T02:40:17.152Z,15.67
2024-02-27T02:42:45.599Z,17.97
2024-02-27T02:45:14.303Z,14.70
2024-02-27T02:47:42.858Z,16.20
2024-02-27T02:50:11.271Z,13.80
2024-02-27T02:52:39.002Z,19.70
2024-02-27T02:55:09.327Z,15.00
2024-02-27T02:57:37.154Z,14.93
2024-02-27T03:00:06.198Z,16.80
2024-02-27T03:02:34.630Z,15.73
2024-02-27T03:05:02.584Z,17.47
2024-02-27T03:07:31.069Z,12.93
2024-02-27T03:09:58.994Z,13.73
2024-02-27T03:12:28.129Z,13.87
2024-02-27T03:14:56.216Z,13.93
2024-02-27T03:17:24.390Z,12.87
2024-02-27T03:19:52.145Z,14.50
2024-02-27T03:22:20.268Z,14.43
2024-02-27T03:24:49.495Z,19.40
2024-02-27T03:27:17.816Z,18.47
2024-02-27T03:29:46.840Z,13.73
2024-02-27T03:32:14.900Z,15.87
2024-02-27T03:34:42.721Z,15.47
2024-02-27T03:37:10.892Z,23.57
2024-02-27T03:39:38.880Z,14.80
2024-02-27T03:42:06.772Z,16.00
2024-02-27T03:44:36.564Z,18.97
2024-02-27T03:47:06.403Z,14.50
2024-02-27T03:49:34.268Z,13.67
2024-02-27T03:52:01.947Z,17.07
2024-02-27T03:54:29.989Z,20.93
2024-02-27T03:56:57.735Z,18.90
2024-02-27T03:59:25.635Z,17.37
2024-02-27T04:01:53.821Z,15.67
2024-02-27T04:04:22.992Z,16.50
2024-02-27T04:06:51.216Z,13.50
2024-02-27T04:09:19.251Z,16.73
2024-02-27T04:11:47.034Z,16.03
2024-02-27T04:14:14.801Z,19.10
2024-02-27T04:16:42.766Z,14.17
2024-02-27T04:19:10.598Z,14.73
2024-02-27T04:21:40.808Z,16.20
2024-02-27T04:24:09.275Z,18.00
2024-02-27T04:26:36.903Z,14.20
2024-02-27T04:29:05.016Z,18.43
2024-02-27T04:31:32.864Z,20.07
2024-02-27T04:34:00.907Z,18.03
2024-02-27T04:36:28.969Z,19.00
2024-02-27T04:38:58.965Z,17.33
2024-02-27T04:41:26.949Z,19.03
2024-02-27T04:43:54.977Z,17.77
2024-02-27T04:46:23.413Z,16.90
2024-02-27T04:48:51.133Z,17.57
2024-02-27T04:51:19.109Z,19.50
2024-02-27T04:53:46.954Z,19.07
2024-02-27T04:56:16.138Z,19.17
2024-02-27T04:58:43.994Z,19.73
2024-02-27T05:01:15.061Z,16.93
2024-02-27T05:03:42.983Z,18.63
2024-02-27T05:06:10.900Z,15.67
2024-02-27T05:08:39.018Z,19.43
2024-02-27T05:11:07.054Z,18.93
2024-02-27T05:13:36.307Z,17.87
2024-02-27T05:16:07.839Z,17.33
2024-02-27T05:18:35.765Z,15.30
2024-02-27T05:21:04.994Z,19.30
2024-02-27T05:23:32.917Z,17.40
2024-02-27T05:26:00.805Z,16.50
2024-02-27T05:28:28.850Z,17.10
2024-02-27T05:30:58.023Z,17.13
2024-02-27T05:33:26.065Z,18.17
2024-02-27T05:35:54.124Z,18.33
2024-02-27T05:38:22.209Z,18.63
2024-02-27T05:40:49.847Z,16.53
2024-02-27T05:43:18.045Z,22.50
2024-02-27T05:45:46.214Z,18.63
2024-02-27T05:48:15.546Z,18.87
2024-02-27T05:50:43.850Z,20.10
2024-02-27T05:53:11.722Z,22.43
2024-02-27T05:55:39.407Z,21.83
2024-02-27T05:58:07.450Z,24.20
2024-02-27T06:00:35.434Z,20.27
2024-02-27T06:03:03.467Z,19.80
2024-02-27T06:05:32.574Z,25.50
2024-02-27T06:08:01.119Z,19.23
2024-02-27T06:10:28.914Z,20.87
2024-02-27T06:12:56.828Z,21.70
2024-02-27T06:15:24.717Z,25.73
2024-02-27T06:17:54.537Z,25.53
2024-02-27T06:20:41.552Z,22.40
2024-02-27T06:23:11.217Z,23.37
2024-02-27T06:25:42.745Z,23.37
2024-02-27T06:28:10.720Z,29.13
2024-02-27T06:30:38.657Z,24.43
2024-02-27T06:33:08.831Z,24.40
2024-02-27T06:35:36.659Z,27.87
2024-02-27T06:38:05.475Z,29.00
2024-02-27T06:40:35.368Z,34.67
2024-02-27T06:43:04.188Z,38.57
2024-02-27T06:45:33.670Z,29.77
2024-02-27T06:48:02.262Z,31.80
2024-02-27T06:50:31.281Z,35.00
2024-02-27T06:53:00.609Z,41.60
2024-02-27T06:55:29.041Z,39.13
2024-02-27T06:57:58.297Z,47.67
2024-02-27T07:00:26.470Z,40.40
2024-02-27T07:02:54.658Z,43.13
2024-02-27T07:05:27.512Z,50.10
2024-02-27T07:08:00.325Z,64.47
2024-02-27T07:10:28.039Z,49.60
2024-02-27T07:12:56.177Z,66.90
2024-02-27T07:15:25.920Z,48.13
2024-02-27T07:17:53.997Z,51.63
2024-02-27T07:20:22.098Z,51.83
2024-02-27T07:22:50.606Z,46.43
2024-02-27T07:25:18.282Z,42.27
2024-02-27T07:27:50.259Z,41.73
2024-02-27T07:30:19.344Z,37.70
2024-02-27T07:32:48.434Z,38.50
2024-02-27T07:35:16.943Z,39.00
2024-02-27T07:37:45.122Z,39.33
2024-02-27T07:40:13.804Z,39.43
2024-02-27T07:42:41.570Z,41.50
2024-02-27T07:45:10.173Z,51.60
2024-02-27T07:47:37.906Z,50.27
2024-02-27T07:50:08.843Z,43.57
2024-02-27T07:52:37.593Z,35.43
2024-02-27T07:55:05.690Z,40.83
2024-02-27T07:57:33.678Z,41.37
2024-02-27T08:00:02.017Z,45.27
2024-02-27T08:02:30.063Z,43.30
2024-02-27T08:04:57.713Z,41.70
2024-02-27T08:07:27.143Z,39.27
2024-02-27T08:09:54.906Z,44.70
2024-02-27T08:12:22.847Z,49.23
2024-02-27T08:14:50.972Z,38.10
2024-02-27T08:17:19.292Z,36.63
2024-02-27T08:19:47.394Z,43.70
2024-02-27T08:22:15.304Z,42.27
2024-02-27T08:24:44.492Z,37.10
2024-02-27T08:27:12.390Z,39.23
2024-02-27T08:29:40.531Z,36.70
2024-02-27T08:32:08.348Z,36.77
2024-02-27T08:34:36.269Z,41.57
2024-02-27T08:37:04.151Z,37.60
2024-02-27T08:39:33.543Z,37.93
2024-02-27T08:42:04.190Z,39.60
2024-02-27T08:44:32.106Z,38.97
2024-02-27T08:47:02.947Z,41.87
2024-02-27T08:49:30.948Z,49.30
2024-02-27T08:51:58.968Z,51.40
2024-02-27T08:54:26.884Z,43.03
2024-02-27T08:56:55.803Z,44.20
2024-02-27T08:59:24.917Z,44.20
2024-02-27T09:01:53.286Z,50.90
2024-02-27T09:04:21.531Z,49.67
2024-02-27T09:06:49.521Z,40.43
2024-02-27T09:09:17.496Z,50.20
2024-02-27T09:11:47.530Z,47.10
2024-02-27T09:14:15.554Z,44.07
2024-02-27T09:16:44.611Z,45.73
2024-02-27T09:19:14.887Z,44.20
2024-02-27T09:21:43.480Z,40.67
2024-02-27T09:24:11.327Z,43.43
2024-02-27T09:26:39.539Z,46.30
2024-02-27T09:29:07.248Z,46.10
2024-02-27T09:31:35.383Z,42.30
2024-02-27T09:34:04.699Z,44.10
2024-02-27T09:36:32.550Z,46.10
2024-02-27T09:39:00.353Z,42.47
2024-02-27T09:41:31.239Z,45.40
2024-02-27T09:43:58.950Z,43.73
2024-02-27T09:46:27.965Z,42.70
2024-02-27T09:48:57.929Z,37.57
2024-02-27T09:51:28.789Z,44.30
2024-02-27T09:54:01.199Z,45.90
2024-02-27T09:56:29.388Z,46.90
2024-02-27T09:58:57.060Z,46.10
2024-02-27T10:01:26.365Z,41.97
2024-02-27T10:03:54.408Z,40.20
2024-02-27T10:06:24.369Z,36.37
2024-02-27T10:08:55.336Z,37.63
2024-02-27T10:11:23.825Z,35.63
2024-02-27T10:13:51.952Z,39.10
2024-02-27T10:16:21.803Z,36.17
2024-02-27T10:18:50.109Z,39.20
2024-02-27T10:21:19.485Z,43.33
2024-02-27T10:23:47.815Z,36.37
2024-02-27T10:26:17.195Z,40.60
2024-02-27T10:28:45.082Z,37.37
2024-02-27T10:31:15.474Z,35.33
2024-02-27T10:33:44.694Z,39.63
2024-02-27T10:36:13.352Z,37.20
2024-02-27T10:38:41.322Z,37.03
2024-02-27T10:41:10.039Z,35.23
2024-02-27T10:43:39.629Z,42.90
2024-02-27T10:46:08.230Z,41.03
2024-02-27T10:48:42.000Z,37.50
2024-02-27T10:51:14.561Z,38.70
2024-02-27T10:53:43.361Z,39.77
2024-02-27T10:56:11.384Z,33.03
2024-02-27T10:58:41.832Z,36.73
2024-02-27T11:01:11.641Z,37.27
2024-02-27T11:03:42.109Z,37.70
2024-02-27T11:06:13.148Z,37.60
2024-02-27T11:08:41.902Z,37.17
2024-02-27T11:11:10.105Z,39.30
2024-02-27T11:13:39.946Z,34.13
2024-02-27T11:16:12.533Z,37.37
2024-02-27T11:18:42.232Z,33.60
2024-02-27T11:21:10.915Z,37.53
2024-02-27T11:23:39.968Z,35.53
2024-02-27T11:26:08.353Z,43.80
2024-02-27T11:28:36.678Z,33.80
2024-02-27T11:31:04.813Z,34.20
2024-02-27T11:33:44.395Z,34.70
2024-02-27T11:36:12.706Z,35.20
2024-02-27T11:38:43.688Z,34.80
2024-02-27T11:41:14.330Z,37.20
2024-02-27T11:43:42.135Z,31.17
2024-02-27T11:46:27.866Z,29.90
2024-02-27T11:48:57.886Z,33.03
2024-02-27T11:51:26.107Z,33.50
2024-02-27T11:53:54.407Z,31.03
2024-02-27T11:56:23.662Z,28.87
2024-02-27T11:58:53.177Z,26.90
2024-02-27T12:01:23.410Z,27.53
2024-02-27T12:03:51.598Z,29.27
2024-02-27T12:06:20.881Z,27.43
2024-02-27T12:08:49.439Z,22.97
2024-02-27T12:11:18.576Z,21.63
2024-02-27T12:13:46.811Z,27.10
2024-02-27T12:16:23.146Z,23.60
2024-02-27T12:18:51.472Z,20.90
2024-02-27T12:21:29.776Z,25.52
2024-02-27T12:24:10.756Z,35.40
2024-02-27T12:26:39.296Z,23.60
2024-02-27T12:29:07.264Z,30.70
2024-02-27T12:31:35.249Z,29.30
2024-02-27T12:34:04.064Z,30.30
2024-02-27T12:36:33.823Z,28.60
2024-02-27T12:39:01.950Z,27.40
2024-02-27T12:41:30.259Z,26.13
2024-02-27T12:43:59.539Z,21.67
2024-02-27T12:46:28.712Z,23.83
2024-02-27T12:48:59.004Z,21.50
2024-02-27T12:51:28.529Z,20.50
2024-02-27T12:53:58.446Z,29.73
2024-02-27T12:56:26.385Z,30.70
2024-02-27T12:58:56.083Z,22.70
2024-02-27T13:01:24.390Z,24.10
2024-02-27T13:03:52.598Z,24.10
2024-02-27T13:06:23.498Z,27.63
2024-02-27T13:08:52.048Z,21.17
2024-02-27T13:11:21.482Z,20.10
2024-02-27T13:13:49.770Z,18.90
2024-02-27T13:16:19.193Z,26.10
2024-02-27T13:18:49.068Z,26.07
2024-02-27T13:21:20.053Z,26.60
2024-02-27T13:23:51.409Z,22.73
2024-02-27T13:26:21.088Z,20.37
2024-02-27T13:28:50.875Z,32.30
2024-02-27T13:31:18.597Z,32.20
2024-02-27T13:33:46.928Z,23.10
2024-02-27T13:36:16.041Z,20.70
2024-02-27T13:38:43.981Z,21.17
2024-02-27T13:41:12.156Z,20.23
2024-02-27T13:43:41.915Z,20.97
2024-02-27T13:46:11.263Z,22.10
2024-02-27T13:48:39.682Z,25.00
2024-02-27T13:51:07.523Z,27.10
2024-02-27T13:53:35.682Z,26.93
2024-02-27T13:56:03.691Z,26.10
2024-02-27T13:58:31.470Z,27.60
2024-02-27T14:01:04.070Z,26.83
2024-02-27T14:03:33.739Z,24.97
2024-02-27T14:06:02.017Z,27.60
2024-02-27T14:08:30.625Z,24.03
2024-02-27T14:11:00.302Z,26.83
2024-02-27T14:13:28.777Z,25.20
2024-02-27T14:15:56.861Z,27.73
2024-02-27T14:18:27.480Z,29.60
2024-02-27T14:20:55.595Z,28.30
2024-02-27T14:23:23.592Z,26.30
2024-02-27T14:25:51.512Z,31.40
2024-02-27T14:28:19.548Z,34.90
2024-02-27T14:30:47.669Z,29.63
2024-02-27T14:33:16.370Z,29.43
2024-02-27T14:35:45.952Z,28.50
2024-02-27T14:38:15.488Z,30.87
2024-02-27T14:40:44.082Z,32.80
2024-02-27T14:43:13.876Z,37.30
2024-02-27T14:45:43.117Z,39.40
2024-02-27T14:48:11.977Z,28.57
2024-02-27T14:50:40.150Z,31.20
2024-02-27T14:53:09.892Z,33.53
2024-02-27T14:55:39.129Z,33.77
2024-02-27T14:58:08.586Z,33.33
2024-02-27T15:00:36.575Z,28.73
2024-02-27T15:03:04.831Z,32.50
2024-02-27T15:05:33.771Z,34.90
2024-02-27T15:08:01.766Z,30.17
2024-02-27T15:10:30.763Z,34.93
2024-02-27T15:13:00.393Z,32.23
2024-02-27T15:15:30.917Z,39.73
2024-02-27T15:17:58.758Z,35.80
2024-02-27T15:20:29.859Z,42.20
2024-02-27T15:22:58.335Z,36.47
2024-02-27T15:25:26.122Z,37.70
2024-02-27T15:27:55.666Z,33.03
2024-02-27T15:30:26.328Z,36.33
2024-02-27T15:32:55.463Z,33.50
2024-02-27T15:35:24.260Z,30.40
2024-02-27T15:37:52.483Z,34.93
2024-02-27T15:40:20.168Z,40.80
2024-02-27T15:42:48.280Z,36.80
2024-02-27T15:45:17.968Z,30.23
2024-02-27T15:47:47.297Z,35.40
2024-02-27T15:50:15.301Z,32.03
2024-02-27T15:52:43.401Z,36.77
2024-02-27T15:55:11.230Z,32.83
2024-02-27T15:57:39.210Z,30.70
2024-02-27T16:00:09.759Z,30.03
2024-02-27T16:02:39.044Z,35.40
2024-02-27T16:05:10.941Z,32.77
2024-02-27T16:07:41.494Z,36.07
2024-02-27T16:10:10.553Z,36.33
2024-02-27T16:12:39.934Z,41.97
2024-02-27T16:15:09.415Z,38.50
2024-02-27T16:17:37.366Z,38.83
2024-02-27T16:20:08.707Z,44.20
2024-02-27T16:22:37.937Z,29.27
2024-02-27T16:25:06.015Z,33.90
2024-02-27T16:27:34.316Z,31.73
2024-02-27T16:30:04.109Z,36.47
2024-02-27T16:32:33.164Z,36.77
2024-02-27T16:35:01.010Z,32.80
2024-02-27T16:37:30.903Z,32.20
2024-02-27T16:39:58.686Z,39.27
2024-02-27T16:42:27.256Z,40.83
2024-02-27T16:44:56.408Z,37.30
2024-02-27T16:47:26.214Z,34.30
2024-02-27T16:49:54.475Z,35.53
2024-02-27T16:52:23.500Z,38.70
2024-02-27T16:54:53.192Z,36.20
2024-02-27T16:57:21.229Z,40.23
2024-02-27T16:59:49.113Z,42.93
2024-02-27T17:02:18.915Z,41.97
2024-02-27T17:04:47.503Z,41.47
2024-02-27T17:07:20.883Z,48.70
2024-02-27T17:09:48.944Z,38.33
2024-02-27T17:12:18.170Z,37.93
2024-02-27T17:14:46.536Z,42.30
2024-02-27T17:17:15.135Z,47.30
2024-02-27T17:19:43.090Z,42.00
2024-02-27T17:22:11.146Z,43.07
2024-02-27T17:24:38.984Z,42.20
2024-02-27T17:27:06.902Z,39.80
2024-02-27T17:29:36.812Z,70.13
2024-02-27T17:32:04.772Z,45.43
2024-02-27T17:34:32.802Z,41.83
2024-02-27T17:37:01.657Z,41.37
2024-02-27T17:39:29.450Z,45.30
2024-02-27T17:41:57.135Z,43.53
2024-02-27T17:44:25.243Z,59.30
2024-02-27T17:46:54.954Z,44.00
2024-02-27T17:49:24.048Z,56.97
2024-02-27T17:51:52.272Z,45.07
2024-02-27T17:54:20.077Z,45.13
2024-02-27T17:56:49.909Z,45.53
2024-02-27T17:59:19.243Z,46.23
2024-02-27T18:01:47.789Z,48.23
2024-02-27T18:04:17.176Z,45.33
2024-02-27T18:06:45.499Z,46.23
2024-02-27T18:09:15.288Z,50.20
2024-02-27T18:11:43.290Z,53.20
2024-02-27T18:14:11.688Z,60.97
2024-02-27T18:16:39.444Z,51.70
2024-02-27T18:19:07.649Z,46.37
2024-02-27T18:21:42.785Z,62.10
2024-02-27T18:24:12.286Z,44.63
2024-02-27T18:26:40.650Z,44.60
2024-02-27T18:29:08.677Z,60.60
2024-02-27T18:31:39.296Z,55.40
2024-02-27T18:34:07.330Z,69.70
2024-02-27T18:36:35.498Z,53.90
2024-02-27T18:39:07.793Z,48.70
2024-02-27T18:41:35.753Z,53.43
2024-02-27T18:44:03.968Z,57.20
2024-02-27T18:46:31.801Z,60.57
2024-02-27T18:49:01.647Z,46.60
2024-02-27T18:51:29.703Z,56.37
2024-02-27T18:53:58.148Z,62.77
2024-02-27T18:56:28.391Z,50.43
2024-02-27T18:58:56.504Z,53.90
2024-02-27T19:01:50.382Z,49.30
2024-02-27T19:04:28.164Z,55.37
2024-02-27T19:06:59.449Z,53.00
2024-02-27T19:09:29.234Z,61.87
2024-02-27T19:11:59.934Z,83.30
2024-02-27T19:14:27.982Z,56.73
2024-02-27T19:16:56.569Z,50.80
2024-02-27T19:19:25.234Z,46.70
2024-02-27T19:21:53.239Z,68.30
2024-02-27T19:24:21.063Z,44.57
2024-02-27T19:26:49.819Z,47.73
2024-02-27T19:29:20.351Z,62.13
2024-02-27T19:31:48.253Z,49.60
2024-02-27T19:34:16.087Z,57.13
2024-02-27T19:36:44.314Z,57.23
2024-02-27T19:39:12.966Z,48.13
2024-02-27T19:41:40.783Z,101.60
2024-02-27T19:44:08.525Z,67.57
2024-02-27T19:46:38.876Z,54.10
2024-02-27T19:49:06.709Z,58.60
2024-02-27T19:51:34.626Z,46.00
2024-02-27T19:54:03.822Z,53.10
2024-02-27T19:56:32.301Z,61.77
2024-02-27T19:59:00.783Z,52.63
2024-02-27T20:01:29.356Z,53.77
2024-02-27T20:03:58.778Z,66.10
2024-02-27T20:06:27.550Z,50.07
2024-02-27T20:08:57.228Z,63.07
2024-02-27T20:11:25.537Z,59.00
2024-02-27T20:13:53.371Z,92.13
2024-02-27T20:16:24.035Z,69.47
2024-02-27T20:18:54.232Z,81.13
2024-02-27T20:21:24.161Z,96.47
2024-02-27T20:23:52.083Z,73.70
2024-02-27T20:26:19.899Z,89.80
2024-02-27T20:28:57.742Z,63.33
2024-02-27T20:31:25.571Z,78.07
2024-02-27T20:33:55.043Z,66.60
2024-02-27T20:36:24.493Z,59.83
2024-02-27T20:38:52.175Z,65.43
2024-02-27T20:41:20.258Z,91.67
2024-02-27T20:43:48.970Z,51.80
2024-02-27T20:46:15.667Z,61.73
2024-02-27T20:48:43.895Z,49.20
2024-02-27T20:51:12.052Z,56.93
2024-02-27T20:53:41.622Z,71.53
2024-02-27T20:56:09.823Z,58.33
2024-02-27T20:58:37.770Z,69.13
2024-02-27T21:01:05.679Z,74.63
2024-02-27T21:03:33.567Z,56.17
2024-02-27T21:06:01.616Z,56.23
2024-02-27T21:08:30.289Z,50.33
2024-02-27T21:11:00.372Z,58.57
2024-02-27T21:13:28.610Z,71.37
2024-02-27T21:15:58.686Z,55.67
2024-02-27T21:18:27.391Z,55.50
2024-02-27T21:20:55.376Z,69.10
2024-02-27T21:23:23.470Z,69.90
2024-02-27T21:25:51.228Z,66.43
2024-02-27T21:28:20.706Z,66.33
2024-02-27T21:30:48.483Z,73.77
2024-02-27T21:33:18.469Z,57.87
2024-02-27T21:35:46.819Z,61.63
2024-02-27T21:38:14.582Z,62.67
2024-02-27T21:40:42.566Z,50.83
2024-02-27T21:43:10.590Z,50.40
2024-02-27T21:45:39.912Z,47.40
2024-02-27T21:48:09.014Z,68.50
2024-02-27T21:50:37.539Z,45.70
2024-02-27T21:53:05.910Z,50.23
2024-02-27T21:55:33.691Z,55.97
2024-02-27T21:58:01.860Z,43.93
2024-02-27T22:00:29.700Z,49.50
2024-02-27T22:02:59.759Z,57.30
2024-02-27T22:05:27.886Z,78.97
2024-02-27T22:07:55.809Z,69.00
2024-02-27T22:10:23.568Z,67.33
2024-02-27T22:12:51.821Z,61.43
2024-02-27T22:15:20.345Z,45.27
2024-02-27T22:17:48.155Z,46.73
2024-02-27T22:20:17.409Z,52.33
2024-02-27T22:22:45.266Z,40.50
2024-02-27T22:25:13.153Z,45.27
2024-02-27T22:27:41.494Z,50.27
2024-02-27T22:30:15.323Z,50.47
2024-02-27T22:32:45.186Z,69.43
2024-02-27T22:35:12.954Z,46.90
2024-02-27T22:37:42.145Z,53.70
2024-02-27T22:40:10.738Z,43.53
2024-02-27T22:42:39.233Z,45.03
2024-02-27T22:45:08.550Z,57.37
2024-02-27T22:47:36.664Z,57.40
2024-02-27T22:50:04.648Z,46.23
2024-02-27T22:52:32.388Z,50.80
2024-02-27T22:55:01.975Z,54.23
2024-02-27T22:57:30.134Z,45.13
2024-02-27T22:59:58.090Z,60.17
2024-02-27T23:02:26.474Z,67.80
2024-02-27T23:04:55.117Z,57.00
2024-02-27T23:07:26.849Z,58.03
2024-02-27T23:09:54.746Z,49.10
2024-02-27T23:12:23.889Z,47.33
2024-02-27T23:14:52.085Z,52.83
2024-02-27T23:17:20.236Z,64.83
2024-02-27T23:19:48.066Z,45.47
2024-02-27T23:22:16.144Z,48.30
2024-02-27T23:24:44.307Z,47.83
2024-02-27T23:27:12.202Z,42.87
2024-02-27T23:29:41.794Z,49.23
2024-02-27T23:32:09.813Z,64.27
2024-02-27T23:34:37.634Z,44.57
2024-02-27T23:37:05.974Z,64.00
2024-02-27T23:39:33.689Z,87.93
2024-02-27T23:42:01.726Z,52.20
2024-02-27T23:44:30.092Z,52.10
2024-02-27T23:46:59.947Z,49.23
2024-02-27T23:49:27.725Z,70.33
2024-02-27T23:51:55.816Z,90.07
2024-02-27T23:54:23.563Z,65.93
2024-02-27T23:56:51.607Z,75.33
2024-02-27T23:59:19.595Z,81.07
